Weather observations for the past three days for
Pontiac, Oakland County International Airport
Metric (Imperial)
Date Time (edt) Wind (kph) Vis. (km) Weather Sky Cond. Temperature (ºC) Relative Humidity Wind Chill (°C) Heat Index (°C) Pressure Precipitation (cm)
Air Dwpt 6 hour altimeter (cm) sea level (mb) 1 hr 3 hr 6 hr
Max. Min.
05 18:53 W 17 16.09 Overcast SCT070 OVC140 12.1 0.4 45% 75.57 0.0
05 17:53 W 24 16.09 Overcast SCT035 OVC070 12.1 3.4 56% 75.57 0.0
05 16:53 NW 19 16.09 Overcast SCT035 OVC070 12.1 3.4 56% 75.57 0.0
05 15:53 W 19 G 33 16.09 Overcast SCT035 OVC070 13.1 3.4 52% 75.57 0.0
05 14:53 W 28 G 37 16.09 Overcast BKN035 OVC070 13.1 4.4 56% 75.57 0.0
05 13:53 W 17 16.09 Overcast SCT024 BKN049 OVC100 11.9 4.4 60% 75.51 0.0
05 12:53 SW 15 16.09 Overcast SCT047 BKN065 OVC095 11.3 6.7 74% 75.51 0.0
05 11:53 NW 17 14.48 Light Rain FEW040 SCT060 OVC080 11 5.7 70% 75.51 0.0
05 10:53 NW 13 16.09 Overcast SCT075 BKN090 OVC120 12.1 5.3 63% 75.44 0.0
05 09:53 NW 22 16.09 Overcast FEW030 BKN090 OVC120 13.4 6.5 63% 75.41 0.0
05 08:53 W 20 16.09 Mostly Cloudy FEW030 SCT090 BKN250 14.1 6.2 59% 75.29 0.0
05 07:53 W 20 16.09 Mostly Cloudy FEW080 SCT110 BKN250 13.3 8.3 72% 75.26 0.0
05 06:53 W 17 16.09 Mostly Cloudy FEW080 BKN120 BKN250 13.3 10.1 81% 75.16 0.0
05 05:53 W 19 14.48 Mostly Cloudy FEW040 SCT150 BKN250 12.9 11.3 90% 75.11 0.0
04 23:53 SW 20 G 35 16.09 Mostly Cloudy FEW150 BKN250 18.2 11.1 63% 74.98 0.0
04 22:53 SW 11 16.09 Mostly Cloudy FEW150 BKN250 17.2 11.1 68% 75.01 0.0
04 21:53 SW 17 G 31 16.09 Mostly Cloudy FEW080 SCT150 BKN250 17.2 11.1 68% 75.01 0.0
04 20:53 SW 11 16.09 Overcast FEW035 SCT080 BKN150 OVC250 16.2 12 76% 74.98 0.0
04 19:53 S 31 G 52 16.09 Thunderstorm Light Rain BKN080CB BKN150 OVC200 22.2 8.4 41% 74.93 0.0
04 18:53 W 19 G 35 16.09 Mostly Cloudy FEW060 BKN250 22.8 7.9 39% 74.9 0.0
04 17:53 SW 26 G 46 16.09 Mostly Cloudy SCT060 BKN250 23.3 6.3 33% 74.98 0.0
04 16:53 SW 28 G 52 16.09 Mostly Cloudy SCT060 BKN250 23.7 4.3 28% 75.01 0.0
04 15:53 SW 26 G 52 16.09 Mostly Cloudy FEW050 BKN250 23.7 2.3 25% 75.03 0.0
04 14:53 SW 24 G 39 16.09 Mostly Cloudy FEW050 BKN250 23.7 2.3 25% 75.08 0.0
04 13:53 SW 37 G 48 16.09 Partly Cloudy and Breezy FEW050 SCT250 23.1 2.2 25% 75.13 0.0
04 12:53 SW 22 G 46 16.09 A Few Clouds FEW050 FEW250 21.9 4.1 31% 75.18 0.0
04 11:53 SW 19 G 35 16.09 A Few Clouds FEW100 FEW250 18.8 5.3 41% 75.26 0.0
04 10:53 SW 17 16.09 A Few Clouds FEW250 16.7 6.1 50% 75.31 0.0
04 09:53 SW 15 G 31 16.09 A Few Clouds FEW250 13.7 5.9 60% 75.34 0.0
04 08:53 SW 15 16.09 A Few Clouds FEW250 11.9 5.5 65% 75.36 0.0
04 07:53 SW 19 16.09 Partly Cloudy FEW030 SCT250 11.3 4.9 65% 75.39 0.0
04 06:53 SW 11 16.09 Partly Cloudy FEW025 SCT250 8.5 3.7 72% 7 75.36 0.0
04 05:53 SW 15 16.09 A Few Clouds FEW250 8.3 3.3 71% 6 75.36 0.0
03 23:53 SW 20 G 33 16.09 Mostly Cloudy BKN070 BKN100 11 3 58% 75.62 0.0
03 22:53 SW 19 G 35 16.09 Mostly Cloudy BKN080 BKN110 11 3 58% 75.67 0.0
03 21:53 SW 20 G 33 16.09 Partly Cloudy SCT070 SCT100 12 3 54% 75.67 0.0
03 20:53 SW 17 G 33 16.09 Partly Cloudy SCT100 12 3 54% 75.67 0.0
03 19:53 W 30 G 43 16.09 Mostly Cloudy FEW070 BKN090 14.3 2 44% 75.64 0.0
03 18:53 W 30 G 46 16.09 Overcast BKN070 OVC090 15.3 1 38% 75.67 0.0
03 17:53 SW 30 G 52 16.09 Overcast BKN075 OVC090 16.2 0 33% 75.67 0.0
03 16:53 SW 22 G 46 16.09 Mostly Cloudy BKN075 BKN100 BKN200 16.8 0 32% 75.67 0.0
03 15:53 W 35 G 52 16.09 Mostly Cloudy and Breezy SCT070 BKN100 BKN200 16.3 -1 31% 75.69 0.0
03 14:53 W 37 G 54 16.09 Partly Cloudy and Breezy FEW060 SCT100 SCT200 17 -1 30% 75.74 0.0
03 13:53 W 37 G 52 16.09 Mostly Cloudy and Breezy FEW037 BKN085 16 -1 31% 75.82 0.0
03 12:53 W 28 G 48 16.09 Overcast FEW065 BKN070 OVC080 14 -1 36% 75.9 0.0
03 11:53 W 24 G 41 16.09 Overcast BKN080 OVC110 13 -2 36% 75.95 0.0
03 10:53 W 24 G 48 16.09 Mostly Cloudy BKN080 BKN110 BKN250 14 -2 33% 75.95 0.0
03 09:53 W 30 G 39 16.09 Mostly Cloudy FEW120 BKN250 12 -2 38% 75.97 0.0
03 08:53 W 17 16.09 Partly Cloudy FEW120 SCT250 8 -3 46% 6 75.97 0.0
03 07:53 W 17 16.09 Partly Cloudy SCT120 SCT250 6 -4 49% 3 76 0.0
03 06:53 SW 13 16.09 A Few Clouds FEW100 FEW250 4 -4 56% 1 75.97 0.0
03 05:53 SW 9 16.09 A Few Clouds FEW100 3 -4 60% 1 76.02 0.0
02 23:53 SW 9 16.09 Fair CLR 5 -3 57% 3 76.15 0.0
02 22:53 SW 7 16.09 Fair CLR 5 -4 53% 4 76.17 0.0
02 21:53 SW 6 16.09 A Few Clouds FEW080 6 -4 49% 76.17 0.0
02 20:53 Calm 16.09 A Few Clouds FEW070 7 -5 43% 76.17 0.0
02 19:53 W 11 16.09 Partly Cloudy FEW065 SCT080 7 -5 43% 5 76.17 0.0
Date Time (edt) Wind (kph) Vis. (km) Weather Sky Cond. Air Dwpt Max. Min. Relative Humidity Wind Chill (°C) Heat Index (°C) altimeter (cm) sea level (mb) 1 hr 3 hr 6 hr
6 hour
Temperature (ºC) Pressure Precipitation (cm)